»·PEaware :: N439LP KTOA-KPOC

N439LP :: KTOA-KPOC

FLIGHT INFORMATION

Flight Status: Arrived
Operator: Privately registered:
United States
More flights under this callsign
Pilot: Raj G. (18179)
Aircraft: CESSNA 172 SKYHAWK
(C172)
More flights by this aircraft type
Origin: KTOA Zamperini
United States
Destination: KPOC Brackett
United States
More flights between these airports :: More routes between these airports
Route: SMO
File this flight plan on PilotEdge
Remarks:
Altitude:
(Current/Filed)
4,500ft
Speed:
(Current/Filed)
110kts
Departed: 08-Jan-21 09:48 PM
Arrived: 08-Jan-21 10:24 PM
Distance/Time
Traveled:
33nm/0:36
Distance/Time
To Go:
Arrived

Flight Plot

Page will automatically refresh every two minutes.

Flight plan parsing failed; only flown route is shown


Map Options




Map Legend


Flown Route
Filed Route
Departure Airport
Arrival Airport
Navaid (VOR, NDB)
Fix

Horizontal Profiles

Position Reports

Time Latitude Longitude Heading Altitude Ground
Speed
08-Jan-21 21:11 33.802982 -118.343444 220 106ft 0kts
08-Jan-21 21:12 33.802982 -118.343444 220 106ft 0kts
08-Jan-21 21:14 33.802982 -118.343444 220 106ft 0kts
08-Jan-21 21:15 33.802982 -118.343444 220 106ft 0kts
08-Jan-21 21:16 33.802982 -118.343444 220 106ft 0kts
08-Jan-21 21:17 33.802982 -118.343444 220 106ft 0kts
08-Jan-21 21:18 33.802982 -118.343444 220 106ft 0kts
08-Jan-21 21:19 33.802982 -118.343444 220 106ft 0kts
08-Jan-21 21:20 33.802982 -118.343444 220 106ft 0kts
08-Jan-21 21:21 33.802982 -118.343444 220 106ft 0kts
08-Jan-21 21:22 33.802982 -118.343444 220 106ft 0kts
08-Jan-21 21:23 33.802982 -118.343444 220 106ft 0kts
08-Jan-21 21:24 33.802982 -118.343444 220 106ft 0kts
08-Jan-21 21:25 33.802982 -118.343444 220 106ft 0kts
08-Jan-21 21:26 33.802982 -118.343444 220 106ft 0kts
08-Jan-21 21:27 33.802982 -118.343444 220 106ft 0kts
08-Jan-21 21:28 33.802982 -118.343444 220 106ft 0kts
08-Jan-21 21:29 33.802982 -118.343444 220 106ft 0kts
08-Jan-21 21:30 33.802982 -118.343444 220 106ft 0kts
08-Jan-21 21:31 33.802982 -118.343444 220 106ft 0kts
08-Jan-21 21:37 33.802982 -118.343443 220 106ft 0kts
08-Jan-21 21:38 33.802982 -118.343443 220 106ft 0kts
08-Jan-21 21:39 33.802982 -118.343443 220 106ft 0kts
08-Jan-21 21:40 33.802982 -118.343443 220 106ft 0kts
08-Jan-21 21:41 33.802484 -118.342482 129 105ft 16kts
08-Jan-21 21:42 33.800884 -118.338810 129 101ft 10kts
08-Jan-21 21:43 33.798970 -118.335930 129 105ft 11kts
08-Jan-21 21:44 33.798834 -118.333136 344 102ft 5kts
08-Jan-21 21:45 33.798971 -118.333294 320 102ft 3kts
08-Jan-21 21:46 33.799531 -118.332955 345 101ft 9kts
08-Jan-21 21:47 33.810871 -118.349618 307 507ft 87kts
08-Jan-21 21:48 33.812660 -118.335692 124 1248ft 100kts
08-Jan-21 21:49 33.795874 -118.309814 172 1997ft 93kts
08-Jan-21 21:50 33.800476 -118.333097 304 2692ft 88kts
08-Jan-21 21:51 33.813795 -118.336762 122 3316ft 103kts
08-Jan-21 21:52 33.795969 -118.315886 207 4028ft 88kts
08-Jan-21 21:53 33.809143 -118.330934 13 4489ft 100kts
08-Jan-21 21:54 33.836222 -118.317201 20 4424ft 107kts
08-Jan-21 21:55 33.862336 -118.328273 319 4441ft 103kts
08-Jan-21 21:56 33.882305 -118.352574 307 4462ft 101kts
08-Jan-21 21:57 33.906251 -118.370774 335 4482ft 101kts
08-Jan-21 21:58 33.930047 -118.388452 325 4467ft 107kts
08-Jan-21 21:59 33.955836 -118.404604 329 4479ft 103kts
08-Jan-21 22:00 33.980143 -118.423881 326 4456ft 105kts
08-Jan-21 22:01 34.004142 -118.443776 320 4305ft 103kts
08-Jan-21 22:02 34.030369 -118.453980 27 3952ft 118kts
08-Jan-21 22:03 34.055774 -118.431690 40 3454ft 110kts
08-Jan-21 22:04 34.072987 -118.402404 69 3083ft 102kts
08-Jan-21 22:05 34.080497 -118.370919 80 3102ft 97kts
08-Jan-21 22:06 34.081519 -118.338285 89 3102ft 97kts
08-Jan-21 22:07 34.081680 -118.305639 89 3099ft 97kts
08-Jan-21 22:08 34.081798 -118.270078 89 3103ft 115kts
08-Jan-21 22:09 34.081926 -118.231138 89 3098ft 116kts
08-Jan-21 22:10 34.082056 -118.191917 89 3099ft 117kts
08-Jan-21 22:11 34.082195 -118.152793 89 3096ft 116kts
08-Jan-21 22:12 34.082340 -118.113916 89 3097ft 116kts
08-Jan-21 22:13 34.082479 -118.075244 89 3100ft 117kts
08-Jan-21 22:14 34.082637 -118.035913 89 3101ft 117kts
08-Jan-21 22:15 34.082801 -117.996668 89 3101ft 117kts
08-Jan-21 22:16 34.083293 -117.957686 66 2351ft 112kts
08-Jan-21 22:17 34.088814 -117.923457 95 1542ft 104kts
08-Jan-21 22:18 34.086221 -117.889450 95 1218ft 111kts
08-Jan-21 22:19 34.086916 -117.854858 90 1340ft 105kts
08-Jan-21 22:20 34.085115 -117.817551 96 1374ft 108kts
08-Jan-21 22:21 34.082691 -117.783220 98 1351ft 99kts
08-Jan-21 22:22 34.091122 -117.769544 268 1181ft 67kts
08-Jan-21 22:23 34.091882 -117.784394 3 989ft 0kts
08-Jan-21 22:24 34.091882 -117.784394 3 989ft 0kts
08-Jan-21 22:25 34.091982 -117.784390 3 989ft 5kts
08-Jan-21 22:26 34.092975 -117.782596 28 994ft 0kts
08-Jan-21 22:27 34.092975 -117.782596 28 994ft 0kts

Navigation Log

Ident Type
Flight plan parsing failed, navigation log unavailable